SLRY  Reyes Airport

Add Bookmark

Reyes, Bolivia

Status IATA
Operational REY
Latitude Longitude
14° 18' 15" S 67° 21' 12" W
-14.304400 -67.353401
Local (DST -4) UTC (GMT -4)
Oct 24, 2014 09:26 Oct 24, 2014 13:26
Sunrise-Sunset Local UTC
Begin Civil Twilight 05:34 09:34
Sunrise 05:56 09:56
Sunset 06:30 22:30
End Civil Twilight 06:52 22:52

Current Weather

METAR Observed MVFR
SLRY 241300Z 06004KT 5000 -TSRA BKN020 FEW023CB OVC070 23/22 Q1013 Fri, Oct 24, 2014 @ 13:00 UTC
(26 Minutes ago)
Marginal Visual Flight Rules
Wind Visibility Clouds Conditions
060° at 4 knots (7 kph) 5000 meters
  • Broken at 2,000' AGL
  • Few at 2,300' AGL
  • Overcast at 7,000' AGL
  • Light Thunderstorm Rain
Temperatures Readings Precipitation
Current Temp 23°C (73°F)
Dewpoint 22°C (72°F)
Humidity 94%
Altimeter 29.91"Hg
Sea Level Pressure 1013mb
Field Elevation 918.64'
None Recorded

Additional weather within a 92.6km radius of SLRY

Map ICAO Location
SLRQ 20.7km S (229°)

24 Hour Weather History

Loading
-

24 Hour Weather Graphs

Loading
-

CheckWX.com is intended as a tool to help pilots better visualize weather data. It is not intended as a substitute for an official weather briefing obtained from a Flight Service Station. CheckWX.com does not meet the FAA requirements for an official pre-flight weather briefing. Therefore, it's important that pilots still call and obtain an official FSS pre-flight weather briefing.